Time;durP1;ratioP1;P1;durP2;ratioP2;P2;SDS_P1;SDS_P2;PMS_P1;PMS_P2;Temp;Humidity;BMP_temperature;BMP_pressure;BME280_temperature;BME280_humidity;BME280_pressure;Samples;Min_cycle;Max_cycle;Signal;HPM_P1;HPM_P2
2023/05/23 00:00:03;;;;;;;12.02;7.47;;;;;;;14.90;100.00;100847.88;686037;28;1488;-60
2023/05/23 00:00:32;;;;;;;11.75;8.32;;;;;;;14.86;100.00;100856.72;682610;28;757;-60
2023/05/23 00:00:56;;;;;;;11.47;8.17;;;;;;;14.84;100.00;100853.25;684224;28;4524;-60
2023/05/23 00:01:17;;;;;;;12.88;7.63;;;;;;;14.86;100.00;100851.47;683937;28;989;-60
2023/05/23 00:01:37;;;;;;;11.53;7.50;;;;;;;14.84;100.00;100847.97;683539;28;1408;-60
2023/05/23 00:02:00;;;;;;;11.57;7.50;;;;;;;14.82;100.00;100850.66;683749;28;1234;-59
2023/05/23 00:02:21;;;;;;;10.93;7.93;;;;;;;14.79;100.00;100857.75;687657;28;1258;-61
2023/05/23 00:02:42;;;;;;;10.85;8.27;;;;;;;14.82;100.00;100857.69;687016;28;948;-60
2023/05/23 00:03:03;;;;;;;11.13;7.83;;;;;;;14.86;100.00;100851.47;685278;28;1726;-59
2023/05/23 00:03:24;;;;;;;11.45;8.00;;;;;;;14.87;100.00;100857.59;687442;28;1011;-60
2023/05/23 00:03:46;;;;;;;11.10;8.13;;;;;;;14.86;100.00;100851.47;686407;28;4853;-60
2023/05/23 00:04:07;;;;;;;10.45;7.55;;;;;;;14.89;100.00;100846.13;686015;28;1504;-59
2023/05/23 00:04:28;;;;;;;10.98;7.82;;;;;;;14.96;100.00;100849.50;686298;28;1007;-59
2023/05/23 00:04:48;;;;;;;12.55;8.13;;;;;;;15.00;100.00;100843.28;685306;28;785;-59
2023/05/23 00:05:08;;;;;;;13.63;8.50;;;;;;;14.95;100.00;100845.16;685967;28;1535;-60
2023/05/23 00:05:29;;;;;;;12.60;8.07;;;;;;;14.90;100.00;100849.66;686621;28;924;-60
2023/05/23 00:05:50;;;;;;;11.20;8.10;;;;;;;14.86;100.00;100843.56;686397;28;1437;-60
2023/05/23 00:06:10;;;;;;;11.38;7.97;;;;;;;14.88;100.00;100843.53;685334;28;1524;-60
2023/05/23 00:06:30;;;;;;;12.10;8.17;;;;;;;14.84;100.00;100845.34;687890;28;869;-60
2023/05/23 00:06:52;;;;;;;11.90;8.50;;;;;;;14.87;100.00;100847.94;686695;28;4548;-59
2023/05/23 00:07:12;;;;;;;11.38;7.57;;;;;;;14.92;100.00;100845.22;685850;28;1556;-59
2023/05/23 00:07:32;;;;;;;11.20;7.50;;;;;;;14.91;100.00;100839.09;687944;28;884;-60
2023/05/23 00:07:53;;;;;;;11.45;8.10;;;;;;;14.91;100.00;100841.72;685553;28;1011;-60
2023/05/23 00:08:15;;;;;;;11.30;8.23;;;;;;;14.88;100.00;100843.53;687143;28;876;-60
2023/05/23 00:08:35;;;;;;;11.55;7.53;;;;;;;14.87;100.00;100842.69;687606;28;967;-60
2023/05/23 00:08:56;;;;;;;11.43;8.00;;;;;;;14.82;100.00;100841.91;686058;28;1282;-60
2023/05/23 00:09:16;;;;;;;11.52;8.00;;;;;;;14.78;100.00;100841.06;687564;28;2009;-60
2023/05/23 00:09:37;;;;;;;11.45;8.20;;;;;;;14.75;100.00;100841.16;686976;28;5327;-58
2023/05/23 00:09:57;;;;;;;10.73;7.83;;;;;;;14.75;100.00;100843.78;685379;28;1505;-60
2023/05/23 00:10:17;;;;;;;11.30;8.00;;;;;;;14.70;100.00;100839.50;688171;28;762;-60
2023/05/23 00:10:38;;;;;;;11.17;8.33;;;;;;;14.69;100.00;100840.38;687381;28;1310;-59
2023/05/23 00:10:58;;;;;;;11.47;8.33;;;;;;;14.72;100.00;100838.56;685631;28;995;-60
2023/05/23 00:11:19;;;;;;;11.88;8.27;;;;;;;14.69;100.00;100843.03;688336;28;1127;-59
2023/05/23 00:11:43;;;;;;;11.68;8.10;;;;;;;14.69;100.00;100846.53;687602;28;861;-60
2023/05/23 00:12:04;;;;;;;12.52;7.95;;;;;;;14.67;100.00;100843.06;685179;28;1446;-60
2023/05/23 00:12:24;;;;;;;11.20;7.90;;;;;;;14.72;100.00;100843.84;687694;28;790;-60
2023/05/23 00:12:46;;;;;;;11.30;8.17;;;;;;;14.77;100.00;100843.75;687458;28;4295;-59
2023/05/23 00:13:11;;;;;;;11.77;8.15;;;;;;;14.77;100.00;100844.63;688114;28;1572;-60
2023/05/23 00:13:34;;;;;;;11.85;8.35;;;;;;;14.75;100.00;100856.06;690289;28;881;-59
2023/05/23 00:13:59;;;;;;;11.63;7.72;;;;;;;14.70;100.00;100847.41;686216;28;1490;-60
2023/05/23 00:14:20;;;;;;;10.52;7.80;;;;;;;14.73;100.00;100852.59;686871;28;948;-60
2023/05/23 00:14:40;;;;;;;10.90;7.85;;;;;;;14.75;100.00;100837.66;685998;28;1019;-60
2023/05/23 00:15:01;;;;;;;12.00;8.27;;;;;;;14.71;100.00;100849.13;686104;28;971;-60
2023/05/23 00:15:22;;;;;;;11.97;8.23;;;;;;;14.71;100.00;100838.63;687373;28;1315;-60
2023/05/23 00:15:45;;;;;;;12.65;8.00;;;;;;;14.67;100.00;100843.06;688052;28;4526;-59
2023/05/23 00:16:09;;;;;;;11.95;7.60;;;;;;;14.62;100.00;100839.59;688634;28;1644;-60
2023/05/23 00:16:29;;;;;;;11.07;7.50;;;;;;;14.60;100.00;100844.03;689407;28;3408;-60
2023/05/23 00:16:50;;;;;;;11.15;7.90;;;;;;;14.57;100.00;100849.34;690499;28;1406;-59
2023/05/23 00:17:11;;;;;;;10.80;7.77;;;;;;;14.58;100.00;100841.44;687596;28;1046;-60
2023/05/23 00:17:31;;;;;;;10.32;7.75;;;;;;;14.55;100.00;100846.75;690241;28;1180;-60
2023/05/23 00:17:51;;;;;;;11.43;8.07;;;;;;;14.55;100.00;100846.75;690402;28;881;-60
2023/05/23 00:18:12;;;;;;;11.85;8.00;;;;;;;14.53;100.00;100843.28;685351;28;1484;-60
2023/05/23 00:18:33;;;;;;;10.40;7.70;;;;;;;14.51;100.00;100850.34;687677;28;1370;-60
2023/05/23 00:18:56;;;;;;;10.30;7.95;;;;;;;14.50;100.00;100845.13;686879;28;4530;-60
2023/05/23 00:19:16;;;;;;;11.50;8.40;;;;;;;14.48;100.00;100842.47;687552;28;928;-59
2023/05/23 00:19:37;;;;;;;11.15;8.25;;;;;;;14.48;100.00;100850.38;690182;28;916;-60
2023/05/23 00:19:57;;;;;;;13.67;8.17;;;;;;;14.48;100.00;100848.63;688870;28;1472;-60
2023/05/23 00:20:17;;;;;;;12.93;8.45;;;;;;;14.51;100.00;100852.97;689755;28;1349;-59
2023/05/23 00:20:42;;;;;;;12.83;8.37;;;;;;;14.50;100.00;100848.59;689974;28;799;-60
2023/05/23 00:21:03;;;;;;;14.63;8.50;;;;;;;14.52;100.00;100856.47;689080;28;915;-60
2023/05/23 00:21:23;;;;;;;13.25;8.30;;;;;;;14.50;100.00;100853.88;690276;28;885;-60
2023/05/23 00:21:50;;;;;;;12.27;8.23;;;;;;;14.51;100.00;100850.34;689666;28;4542;-59
2023/05/23 00:22:12;;;;;;;13.90;8.48;;;;;;;14.48;100.00;100853.88;688524;28;1734;-60
2023/05/23 00:22:32;;;;;;;12.27;8.45;;;;;;;14.49;100.00;100854.75;689490;28;919;-60
2023/05/23 00:22:53;;;;;;;11.03;8.30;;;;;;;14.52;100.00;100848.56;690681;28;975;-60
2023/05/23 00:23:17;;;;;;;11.35;8.57;;;;;;;14.53;100.00;100855.56;687757;28;1801;-60
2023/05/23 00:23:41;;;;;;;12.90;8.52;;;;;;;14.63;100.00;100860.69;686917;28;920;-60
2023/05/23 00:24:01;;;;;;;12.30;8.32;;;;;;;14.61;100.00;100859.78;686156;28;3279;-60
2023/05/23 00:24:21;;;;;;;12.60;8.70;;;;;;;14.66;100.00;100849.19;687425;28;971;-60
2023/05/23 00:24:42;;;;;;;11.95;8.57;;;;;;;14.69;100.00;100850.91;685991;28;4322;-59
2023/05/23 00:25:03;;;;;;;11.35;8.07;;;;;;;14.68;100.00;100857.09;685800;28;1635;-60
2023/05/23 00:25:24;;;;;;;11.87;8.03;;;;;;;14.67;100.00;100860.63;689575;28;884;-60
2023/05/23 00:25:47;;;;;;;13.43;8.55;;;;;;;14.64;100.00;100853.63;691604;28;753;-60
2023/05/23 00:26:08;;;;;;;12.80;8.60;;;;;;;14.61;100.00;100857.16;688820;28;1725;-60
2023/05/23 00:26:29;;;;;;;12.02;8.38;;;;;;;14.61;100.00;100857.16;687682;28;2162;-60
2023/05/23 00:26:50;;;;;;;11.60;8.25;;;;;;;14.61;100.00;100851.91;686315;28;893;-60
2023/05/23 00:27:13;;;;;;;12.23;8.70;;;;;;;14.57;100.00;100852.84;684767;28;1584;-60
2023/05/23 00:27:34;;;;;;;12.00;8.63;;;;;;;14.60;100.00;100859.81;684860;28;2063;-60
2023/05/23 00:27:55;;;;;;;12.05;8.80;;;;;;;14.57;100.00;100855.47;682345;28;4276;-61
2023/05/23 00:28:15;;;;;;;12.47;8.60;;;;;;;14.54;100.00;100857.28;684765;28;1243;-60
2023/05/23 00:28:37;;;;;;;12.00;8.73;;;;;;;14.53;100.00;100845.91;687306;28;917;-60
2023/05/23 00:29:00;;;;;;;12.60;8.55;;;;;;;14.59;100.00;100853.69;685309;28;1496;-60
2023/05/23 00:29:20;;;;;;;11.30;8.30;;;;;;;14.59;100.00;100852.81;688156;28;1985;-60
2023/05/23 00:29:41;;;;;;;12.33;8.77;;;;;;;14.61;100.00;100851.91;686571;28;1435;-60
2023/05/23 00:30:03;;;;;;;12.55;8.30;;;;;;;14.68;100.00;100852.69;683383;28;1451;-58
2023/05/23 00:30:23;;;;;;;12.25;8.45;;;;;;;14.67;100.00;100850.09;685052;28;782;-60
2023/05/23 00:30:44;;;;;;;11.77;8.67;;;;;;;14.66;100.00;100850.97;684514;28;4384;-59
2023/05/23 00:31:04;;;;;;;12.43;8.13;;;;;;;14.74;100.00;100854.34;685826;28;1520;-59
2023/05/23 00:31:25;;;;;;;11.83;8.10;;;;;;;14.70;100.00;100850.03;689629;28;1270;-59
2023/05/23 00:31:46;;;;;;;11.38;8.07;;;;;;;14.72;100.00;100849.09;690253;28;1023;-60
2023/05/23 00:32:07;;;;;;;11.38;8.18;;;;;;;14.71;100.00;100855.25;689954;28;1957;-60
2023/05/23 00:32:28;;;;;;;12.17;8.07;;;;;;;14.69;100.00;100856.16;689328;28;1203;-60
2023/05/23 00:32:48;;;;;;;11.45;7.82;;;;;;;14.67;100.00;100847.47;687867;28;785;-60
2023/05/23 00:33:09;;;;;;;12.67;8.10;;;;;;;14.71;100.00;100857.03;687432;28;1728;-60
2023/05/23 00:33:32;;;;;;;12.30;7.88;;;;;;;14.68;100.00;100851.84;689172;28;1261;-60
2023/05/23 00:33:52;;;;;;;12.05;7.95;;;;;;;14.68;100.00;100850.06;689438;28;4368;-60
2023/05/23 00:34:14;;;;;;;12.13;8.10;;;;;;;14.70;100.00;100847.41;685153;28;1608;-60
2023/05/23 00:34:35;;;;;;;11.60;8.32;;;;;;;14.66;100.00;100854.47;684361;28;1299;-61
2023/05/23 00:34:55;;;;;;;12.40;8.05;;;;;;;14.62;100.00;100850.13;683247;28;1546;-60
2023/05/23 00:35:16;;;;;;;11.73;8.00;;;;;;;14.64;100.00;100851.88;685090;28;1625;-60
2023/05/23 00:35:37;;;;;;;10.52;7.55;;;;;;;14.73;100.00;100856.09;686999;28;822;-59
2023/05/23 00:35:59;;;;;;;11.40;8.10;;;;;;;14.74;100.00;100849.06;685939;28;1658;-61
2023/05/23 00:36:19;;;;;;;10.38;7.70;;;;;;;14.73;100.00;100857.84;687091;28;1350;-60
2023/05/23 00:36:40;;;;;;;11.13;7.93;;;;;;;14.70;100.00;100856.13;685712;28;4597;-59
2023/05/23 00:37:01;;;;;;;10.77;7.70;;;;;;;14.67;100.00;100853.56;683239;28;2055;-60
2023/05/23 00:37:21;;;;;;;10.97;7.90;;;;;;;14.65;100.00;100852.75;684269;28;920;-59
2023/05/23 00:37:42;;;;;;;11.48;8.30;;;;;;;14.69;100.00;100858.81;684484;28;955;-60
2023/05/23 00:38:03;;;;;;;10.93;8.15;;;;;;;14.70;100.00;100861.41;681146;28;1513;-60
2023/05/23 00:38:23;;;;;;;12.13;8.20;;;;;;;14.66;100.00;100859.72;684676;28;977;-60
2023/05/23 00:38:46;;;;;;;12.65;8.13;;;;;;;14.71;100.00;100852.63;684816;28;5343;-60
2023/05/23 00:39:07;;;;;;;10.95;8.07;;;;;;;14.73;100.00;100860.47;683443;28;1566;-60
2023/05/23 00:39:28;;;;;;;12.02;8.65;;;;;;;14.68;100.00;100857.09;684376;28;1268;-61
2023/05/23 00:39:48;;;;;;;11.75;8.70;;;;;;;14.75;100.00;100858.72;683575;28;4318;-59
2023/05/23 00:40:09;;;;;;;12.30;8.30;;;;;;;14.74;100.00;100864.84;683283;28;1580;-60
2023/05/23 00:40:29;;;;;;;11.73;8.48;;;;;;;14.72;100.00;100859.63;685295;28;896;-60
2023/05/23 00:40:49;;;;;;;11.80;8.57;;;;;;;14.72;100.00;100858.78;684858;28;912;-61
2023/05/23 00:41:10;;;;;;;11.13;7.78;;;;;;;14.82;100.00;100861.16;681943;28;1446;-59
2023/05/23 00:41:32;;;;;;;11.87;8.50;;;;;;;14.90;100.00;100850.50;681876;29;791;-59
2023/05/23 00:41:52;;;;;;;12.50;8.63;;;;;;;14.85;100.00;100865.50;682340;28;900;-59
2023/05/23 00:42:13;;;;;;;11.00;8.07;;;;;;;14.81;100.00;100863.84;680258;28;1553;-60
2023/05/23 00:42:33;;;;;;;11.25;8.25;;;;;;;14.85;100.00;100860.25;678894;29;1311;-59
2023/05/23 00:42:53;;;;;;;11.80;8.30;;;;;;;14.88;100.00;100865.44;684214;28;5239;-60
2023/05/23 00:43:14;;;;;;;12.50;8.40;;;;;;;14.91;100.00;100865.41;682971;28;1410;-59
2023/05/23 00:43:35;;;;;;;13.13;8.77;;;;;;;14.95;100.00;100860.94;686641;28;1035;-61
2023/05/23 00:43:58;;;;;;;11.97;8.77;;;;;;;14.92;100.00;100861.88;686186;28;1711;-60
2023/05/23 00:44:20;;;;;;;12.55;9.15;;;;;;;14.93;100.00;100855.72;684637;28;1399;-60
2023/05/23 00:44:40;;;;;;;12.55;9.38;;;;;;;14.93;100.00;100862.75;684333;28;1048;-60
2023/05/23 00:45:00;;;;;;;11.75;8.95;;;;;;;14.87;100.00;100857.59;684015;28;1544;-60
2023/05/23 00:45:21;;;;;;;12.10;8.50;;;;;;;14.91;100.00;100859.25;684275;28;1150;-60
2023/05/23 00:45:41;;;;;;;12.00;8.53;;;;;;;14.87;100.00;100863.75;684698;28;4642;-62
2023/05/23 00:46:02;;;;;;;12.67;9.03;;;;;;;14.84;100.00;100865.56;684855;28;1654;-60
2023/05/23 00:46:22;;;;;;;11.88;9.35;;;;;;;14.89;100.00;100861.06;687491;28;967;-59
2023/05/23 00:46:46;;;;;;;12.40;9.53;;;;;;;14.90;100.00;100857.56;687166;28;777;-59
2023/05/23 00:47:10;;;;;;;11.38;8.77;;;;;;;14.92;100.00;100856.59;685024;28;1560;-60
2023/05/23 00:47:30;;;;;;;11.13;8.52;;;;;;;14.95;100.00;100860.94;687477;28;1231;-59
2023/05/23 00:47:52;;;;;;;12.68;9.25;;;;;;;14.92;100.00;100867.13;687426;28;896;-59
2023/05/23 00:48:14;;;;;;;12.73;9.85;;;;;;;14.86;100.00;100862.00;686122;28;1019;-60
2023/05/23 00:48:37;;;;;;;12.77;9.68;;;;;;;14.83;100.00;100859.44;686097;28;999;-60
2023/05/23 00:48:57;;;;;;;12.18;9.32;;;;;;;14.80;100.00;100860.34;688435;28;4692;-60
2023/05/23 00:49:21;;;;;;;12.17;9.53;;;;;;;14.79;100.00;100858.59;690295;28;1910;-60
2023/05/23 00:49:43;;;;;;;12.27;9.50;;;;;;;14.83;100.00;100859.44;689998;28;842;-60
2023/05/23 00:50:03;;;;;;;13.18;9.20;;;;;;;14.86;100.00;100863.78;688512;28;1248;-59
2023/05/23 00:50:28;;;;;;;12.57;9.13;;;;;;;14.81;100.00;100861.22;690322;28;1012;-59
2023/05/23 00:50:49;;;;;;;13.13;9.68;;;;;;;14.77;100.00;100859.53;686599;28;1267;-60
2023/05/23 00:51:09;;;;;;;12.93;9.65;;;;;;;14.73;100.00;100856.09;684648;28;1620;-61
2023/05/23 00:51:30;;;;;;;14.57;10.00;;;;;;;14.76;100.00;100865.69;684657;28;1204;-60
2023/05/23 00:51:51;;;;;;;14.13;9.93;;;;;;;14.75;100.00;100861.34;685185;28;4410;-59
2023/05/23 00:52:14;;;;;;;13.32;9.50;;;;;;;14.83;100.00;100862.06;683212;28;1481;-59
2023/05/23 00:52:35;;;;;;;14.27;9.80;;;;;;;14.81;100.00;100861.22;681305;28;1473;-60
2023/05/23 00:52:57;;;;;;;13.17;9.73;;;;;;;14.79;100.00;100860.38;680366;28;1700;-59
2023/05/23 00:53:18;;;;;;;13.52;10.10;;;;;;;14.77;100.00;100863.06;682790;28;985;-59
2023/05/23 00:53:39;;;;;;;12.40;9.50;;;;;;;14.77;100.00;100857.78;684367;28;872;-59
2023/05/23 00:54:00;;;;;;;12.18;9.45;;;;;;;14.76;100.00;100863.94;684122;28;1627;-60
2023/05/23 00:54:26;;;;;;;12.13;9.07;;;;;;;14.73;100.00;100865.75;688064;28;741;-60
2023/05/23 00:54:48;;;;;;;12.50;9.32;;;;;;;14.70;100.00;100871.06;688099;28;4580;-61
2023/05/23 00:55:09;;;;;;;12.35;9.50;;;;;;;14.70;100.00;100860.53;685349;28;1485;-60
2023/05/23 00:55:29;;;;;;;12.37;9.00;;;;;;;14.74;100.00;100856.97;687584;28;1094;-59
2023/05/23 00:55:50;;;;;;;10.88;8.70;;;;;;;14.73;100.00;100858.75;684387;28;1478;-59
2023/05/23 00:56:11;;;;;;;12.52;9.00;;;;;;;14.71;100.00;100862.28;679975;28;1628;-59
2023/05/23 00:56:31;;;;;;;13.30;9.50;;;;;;;14.68;100.00;100867.63;681447;28;1442;-60
2023/05/23 00:56:52;;;;;;;12.47;9.20;;;;;;;14.67;100.00;100865.88;682519;28;1368;-60
2023/05/23 00:57:12;;;;;;;13.55;9.20;;;;;;;14.78;100.00;100863.91;683270;28;1527;-59
2023/05/23 00:57:34;;;;;;;12.73;9.70;;;;;;;14.79;100.00;100870.91;684833;28;876;-59
2023/05/23 00:57:56;;;;;;;12.52;9.70;;;;;;;14.77;100.00;100868.31;681613;28;4537;-59
2023/05/23 00:58:16;;;;;;;12.25;9.30;;;;;;;14.81;100.00;100870.00;681903;28;810;-60
2023/05/23 00:58:37;;;;;;;12.17;9.57;;;;;;;14.91;100.00;100865.41;685103;28;1382;-58
2023/05/23 00:58:59;;;;;;;12.95;10.15;;;;;;;14.95;100.00;100867.09;683221;28;1549;-60
2023/05/23 00:59:23;;;;;;;13.20;10.32;;;;;;;14.96;100.00;100868.81;681609;29;968;-60
2023/05/23 00:59:44;;;;;;;13.32;10.25;;;;;;;14.98;100.00;100864.38;682209;28;901;-58
2023/05/23 01:00:11;;;;;;;13.73;10.07;;;;;;;14.98;100.00;100871.41;682277;28;1573;-60
2023/05/23 01:00:32;;;;;;;13.90;10.65;;;;;;;14.90;100.00;100866.31;684083;28;925;-59
2023/05/23 01:00:54;;;;;;;14.32;10.57;;;;;;;14.80;100.00;100870.88;683559;28;4561;-59
2023/05/23 01:01:16;;;;;;;13.68;10.48;;;;;;;14.80;100.00;100873.50;682507;28;1562;-59
2023/05/23 01:01:36;;;;;;;13.50;10.02;;;;;;;14.78;100.00;100867.41;684294;28;1360;-61
2023/05/23 01:01:59;;;;;;;14.00;10.77;;;;;;;14.79;100.00;100869.13;682899;28;1598;-60
2023/05/23 01:02:20;;;;;;;13.98;10.52;;;;;;;14.74;100.00;100875.38;684731;28;1368;-59
2023/05/23 01:02:45;;;;;;;13.90;10.30;;;;;;;14.70;100.00;100871.94;686688;28;1289;-60
2023/05/23 01:03:06;;;;;;;14.70;10.48;;;;;;;14.70;100.00;100873.72;688886;28;1028;-59
2023/05/23 01:03:27;;;;;;;13.52;10.52;;;;;;;14.69;100.00;100875.47;686753;28;876;-59
2023/05/23 01:03:50;;;;;;;12.70;9.88;;;;;;;14.73;100.00;100878.91;689500;28;4414;-59
2023/05/23 01:04:12;;;;;;;12.48;10.00;;;;;;;14.67;100.00;100877.25;688519;28;1456;-60
2023/05/23 01:04:33;;;;;;;12.50;10.07;;;;;;;14.67;100.00;100872.00;686360;28;2035;-60
2023/05/23 01:04:54;;;;;;;12.33;10.10;;;;;;;14.64;100.00;100878.19;687390;28;888;-60
2023/05/23 01:05:16;;;;;;;12.75;10.20;;;;;;;14.68;100.00;100884.25;687276;28;1572;-59
2023/05/23 01:05:38;;;;;;;13.77;10.38;;;;;;;14.75;100.00;100875.34;689768;28;849;-59
2023/05/23 01:05:59;;;;;;;13.95;10.25;;;;;;;14.77;100.00;100881.47;685126;28;1486;-60
2023/05/23 01:06:19;;;;;;;13.50;9.87;;;;;;;14.76;100.00;100878.84;683204;28;1144;-60
2023/05/23 01:06:40;;;;;;;13.40;9.30;;;;;;;14.75;100.00;100882.38;683494;28;4390;-60
2023/05/23 01:07:00;;;;;;;13.40;9.50;;;;;;;14.73;100.00;100879.78;681432;28;994;-60
2023/05/23 01:07:20;;;;;;;12.47;9.80;;;;;;;14.73;100.00;100876.28;684912;28;991;-61
2023/05/23 01:07:41;;;;;;;14.93;10.70;;;;;;;14.72;100.00;100874.56;681438;28;1307;-60
2023/05/23 01:08:02;;;;;;;14.33;10.13;;;;;;;14.79;100.00;100877.03;683640;28;1017;-60
2023/05/23 01:08:22;;;;;;;14.60;10.45;;;;;;;14.82;100.00;100873.47;687234;28;952;-60
2023/05/23 01:08:43;;;;;;;13.53;10.00;;;;;;;14.81;100.00;100874.38;687499;28;868;-60
2023/05/23 01:09:03;;;;;;;12.45;9.50;;;;;;;14.82;100.00;100873.47;688438;28;1612;-60
2023/05/23 01:09:27;;;;;;;14.07;9.73;;;;;;;14.85;100.00;100870.78;690202;28;1969;-60
2023/05/23 01:09:48;;;;;;;13.57;10.13;;;;;;;14.91;100.00;100873.31;691475;28;4373;-59
2023/05/23 01:10:10;;;;;;;13.30;9.93;;;;;;;15.01;100.00;100875.75;690170;28;926;-59
2023/05/23 01:10:30;;;;;;;13.98;10.45;;;;;;;14.96;100.00;100881.09;691956;28;939;-60
2023/05/23 01:10:51;;;;;;;13.52;9.85;;;;;;;14.95;100.00;100879.38;692054;28;872;-60
2023/05/23 01:11:37;;;;;;;14.13;10.10;;;;;;;14.93;100.00;100884.66;690932;28;1483;-59
2023/05/23 01:12:16;;;;;;;13.80;9.63;;;;;;;14.88;100.00;100878.59;690433;28;2243;-60
2023/05/23 01:12:45;;;;;;;12.63;9.10;;;;;;;14.82;100.00;100878.75;687532;28;3334;-59
2023/05/23 01:13:38;;;;;;;12.80;10.05;;;;;;;14.88;100.00;100878.59;687519;28;5067;-59
2023/05/23 01:14:06;;;;;;;12.82;9.40;;;;;;;14.89;100.00;100882.97;681783;28;1592;-59
2023/05/23 01:15:05;;;;;;;12.13;9.20;;;;;;;14.94;100.00;100885.56;690076;28;1318;-60
2023/05/23 01:15:56;;;;;;;10.57;8.40;;;;;;;14.90;100.00;100884.72;690166;28;900;-59
2023/05/23 01:16:27;;;;;;;12.43;8.85;;;;;;;14.88;100.00;100880.38;689085;28;4969;-59
2023/05/23 01:16:54;;;;;;;11.50;8.88;;;;;;;14.81;100.00;100880.53;689762;28;1087;-60
2023/05/23 01:17:20;;;;;;;10.95;8.25;;;;;;;14.78;100.00;100882.31;687876;28;1531;-60
2023/05/23 01:17:58;;;;;;;11.43;8.63;;;;;;;14.85;100.00;100876.03;689161;28;1321;-60
2023/05/23 01:18:29;;;;;;;12.07;8.63;;;;;;;14.87;100.00;100886.53;688416;28;969;-60
2023/05/23 01:19:19;;;;;;;10.95;8.77;;;;;;;14.91;100.00;100878.56;689323;28;4570;-60
2023/05/23 01:19:57;;;;;;;13.02;8.75;;;;;;;15.00;100.00;100879.28;684436;28;1311;-60
2023/05/23 01:20:23;;;;;;;12.00;8.15;;;;;;;14.88;100.00;100885.66;679216;28;3726;-61
2023/05/23 01:20:49;;;;;;;12.48;8.60;;;;;;;14.93;100.00;100879.41;687047;28;967;-59
2023/05/23 01:21:17;;;;;;;12.55;9.00;;;;;;;14.91;100.00;100875.94;685886;28;1614;-59
2023/05/23 01:21:39;;;;;;;12.68;9.48;;;;;;;14.80;100.00;100884.03;685903;28;4572;-58
2023/05/23 01:22:05;;;;;;;14.18;10.05;;;;;;;14.78;100.00;100887.59;683302;28;1542;-59
2023/05/23 01:22:51;;;;;;;13.40;9.45;;;;;;;14.75;100.00;100882.38;685784;28;944;-60
2023/05/23 01:23:26;;;;;;;12.38;9.57;;;;;;;14.81;100.00;100883.16;684473;28;1473;-59
2023/05/23 01:24:35;;;;;;;13.10;9.77;;;;;;;14.86;100.00;100885.69;690858;28;1141;-59
2023/05/23 01:25:26;;;;;;;11.93;8.73;;;;;;;14.89;100.00;100877.72;690581;28;4588;-59
2023/05/23 01:26:25;;;;;;;12.75;9.68;;;;;;;14.83;100.00;100877.84;688416;28;1366;-60
2023/05/23 01:26:54;;;;;;;14.00;9.35;;;;;;;14.82;100.00;100878.75;689060;28;1051;-59
2023/05/23 01:27:31;;;;;;;11.23;8.40;;;;;;;14.78;100.00;100884.97;688379;28;1603;-59
2023/05/23 01:27:56;;;;;;;10.85;8.52;;;;;;;14.79;100.00;100881.44;689170;28;4593;-60
2023/05/23 01:28:20;;;;;;;11.52;8.52;;;;;;;14.80;100.00;100881.41;687241;28;1267;-59
2023/05/23 01:28:47;;;;;;;11.75;8.50;;;;;;;14.82;100.00;100881.38;687040;28;1752;-59
2023/05/23 01:29:13;;;;;;;11.23;8.60;;;;;;;14.82;100.00;100884.88;680243;28;1404;-58
2023/05/23 01:29:38;;;;;;;12.15;8.88;;;;;;;14.86;100.00;100882.19;681840;29;1973;-59
2023/05/23 01:30:01;;;;;;;12.55;8.80;;;;;;;14.89;100.00;100877.72;679319;28;1287;-59
2023/05/23 01:30:25;;;;;;;11.38;8.55;;;;;;;14.89;100.00;100880.34;681826;29;1223;-59
2023/05/23 01:30:50;;;;;;;12.30;8.50;;;;;;;14.87;100.00;100879.53;681366;28;4621;-59
2023/05/23 01:31:12;;;;;;;11.10;7.95;;;;;;;14.85;100.00;100888.34;677291;29;1855;-59
2023/05/23 01:31:36;;;;;;;12.48;8.25;;;;;;;14.78;100.00;100887.59;678314;28;1284;-61
2023/05/23 01:31:58;;;;;;;10.93;8.50;;;;;;;14.76;100.00;100882.34;678774;29;1092;-59
2023/05/23 01:32:21;;;;;;;10.82;8.27;;;;;;;14.68;100.00;100878.16;681221;29;1090;-60
2023/05/23 01:32:42;;;;;;;9.80;8.10;;;;;;;14.66;100.00;100885.19;681225;29;1074;-59
2023/05/23 01:33:03;;;;;;;10.70;8.75;;;;;;;14.57;100.00;100881.78;680669;28;1668;-59
2023/05/23 01:33:25;;;;;;;10.90;9.00;;;;;;;14.51;100.00;100881.91;685268;28;1012;-59
2023/05/23 01:33:49;;;;;;;11.63;9.27;;;;;;;14.59;100.00;100880.00;686644;28;4498;-60
2023/05/23 01:34:11;;;;;;;10.95;8.48;;;;;;;14.59;100.00;100881.75;683901;28;1524;-60
2023/05/23 01:34:33;;;;;;;10.68;8.82;;;;;;;14.59;100.00;100873.88;685803;28;1259;-59
2023/05/23 01:34:55;;;;;;;11.90;9.25;;;;;;;14.65;100.00;100879.06;688361;28;2150;-59
2023/05/23 01:35:26;;;;;;;12.00;9.32;;;;;;;14.59;100.00;100882.66;687671;28;1544;-58
2023/05/23 01:35:48;;;;;;;10.18;8.43;;;;;;;14.69;100.00;100877.22;687565;28;809;-59
2023/05/23 01:36:12;;;;;;;11.30;9.18;;;;;;;14.72;100.00;100870.16;685693;28;1794;-59
2023/05/23 01:36:38;;;;;;;11.25;8.95;;;;;;;14.70;100.00;100882.44;689025;28;1345;-59
2023/05/23 01:36:59;;;;;;;11.48;8.82;;;;;;;14.66;100.00;100875.50;690364;28;5229;-61
2023/05/23 01:37:20;;;;;;;10.57;8.70;;;;;;;14.69;100.00;100885.13;691105;28;825;-60
2023/05/23 01:37:40;;;;;;;10.20;8.77;;;;;;;14.67;100.00;100879.88;689581;28;868;-59
2023/05/23 01:38:00;;;;;;;11.00;8.73;;;;;;;14.61;100.00;100877.34;685190;28;1456;-60
2023/05/23 01:38:21;;;;;;;10.13;8.90;;;;;;;14.61;100.00;100883.47;686147;28;900;-60
2023/05/23 01:38:41;;;;;;;9.70;8.70;;;;;;;14.60;100.00;100883.50;684539;28;1164;-59
2023/05/23 01:39:02;;;;;;;9.63;8.63;;;;;;;14.64;100.00;100883.44;682890;28;1668;-59
2023/05/23 01:39:23;;;;;;;10.13;8.55;;;;;;;14.58;100.00;100882.63;684103;28;987;-60
2023/05/23 01:39:43;;;;;;;9.68;8.52;;;;;;;14.50;100.00;100884.56;683047;28;4499;-59
2023/05/23 01:40:04;;;;;;;9.40;8.27;;;;;;;14.46;100.00;100883.75;685884;28;1513;-60
2023/05/23 01:40:25;;;;;;;8.82;7.93;;;;;;;14.48;100.00;100887.19;686448;28;1180;-59
2023/05/23 01:40:45;;;;;;;9.70;8.20;;;;;;;14.53;100.00;100879.25;684465;28;806;-60
2023/05/23 01:41:06;;;;;;;9.67;8.37;;;;;;;14.54;100.00;100889.75;683174;28;1597;-60
2023/05/23 01:41:27;;;;;;;9.35;8.35;;;;;;;14.51;100.00;100889.81;684377;28;1366;-60
2023/05/23 01:41:50;;;;;;;9.63;8.35;;;;;;;14.58;100.00;100887.91;687266;28;1325;-60
2023/05/23 01:42:11;;;;;;;9.68;8.38;;;;;;;14.50;100.00;100885.44;688224;28;1583;-61
2023/05/23 01:42:31;;;;;;;8.90;8.00;;;;;;;14.46;100.00;100891.63;689945;28;882;-60
2023/05/23 01:42:56;;;;;;;8.95;8.05;;;;;;;14.44;100.00;100889.03;689433;28;4523;-58
2023/05/23 01:43:16;;;;;;;9.23;8.20;;;;;;;14.50;100.00;100893.31;688744;28;1496;-59
2023/05/23 01:43:37;;;;;;;9.00;8.10;;;;;;;14.54;100.00;100891.47;686446;28;1314;-59
2023/05/23 01:43:57;;;;;;;9.52;8.05;;;;;;;14.56;100.00;100887.94;684414;28;1213;-59
2023/05/23 01:44:19;;;;;;;9.60;8.00;;;;;;;14.57;100.00;100883.56;683039;28;1686;-60
2023/05/23 01:44:40;;;;;;;9.00;8.00;;;;;;;14.59;100.00;100889.66;684633;28;1228;-60
2023/05/23 01:45:00;;;;;;;9.63;7.72;;;;;;;14.63;100.00;100883.47;685789;28;1580;-59
2023/05/23 01:45:21;;;;;;;9.10;7.90;;;;;;;14.59;100.00;100895.81;687626;28;1035;-59
2023/05/23 01:45:42;;;;;;;9.40;8.15;;;;;;;14.61;100.00;100894.00;685090;28;4278;-59
2023/05/23 01:46:05;;;;;;;11.02;8.43;;;;;;;14.58;100.00;100888.78;682089;28;2039;-60
2023/05/23 01:46:27;;;;;;;9.68;7.70;;;;;;;14.58;100.00;100888.78;684607;28;1151;-59
2023/05/23 01:46:47;;;;;;;8.73;7.55;;;;;;;14.55;100.00;100890.59;684494;28;964;-59
2023/05/23 01:47:09;;;;;;;8.52;7.50;;;;;;;14.51;100.00;100896.81;680419;28;1162;-60
2023/05/23 01:47:30;;;;;;;8.90;7.72;;;;;;;14.58;100.00;100886.16;681943;29;1198;-60